createdAt,value
2023-06-23T00:01:15.532Z,85.96
2023-06-23T00:03:45.329Z,86.14
2023-06-23T00:06:15.308Z,86.16
2023-06-23T00:08:49.009Z,86.20
2023-06-23T00:11:18.223Z,85.92
2023-06-23T00:13:47.241Z,86.08
2023-06-23T00:16:16.773Z,86.37
2023-06-23T00:18:45.613Z,86.59
2023-06-23T00:21:14.738Z,86.62
2023-06-23T00:23:49.045Z,86.90
2023-06-23T00:26:20.313Z,87.17
2023-06-23T00:28:48.937Z,87.04
2023-06-23T00:31:17.284Z,86.50
2023-06-23T00:33:46.638Z,86.40
2023-06-23T00:36:16.515Z,86.53
2023-06-23T00:38:50.338Z,86.08
2023-06-23T00:41:21.067Z,86.42
2023-06-23T00:43:51.217Z,86.69
2023-06-23T00:46:25.610Z,87.13
2023-06-23T00:48:57.086Z,87.27
2023-06-23T00:51:29.433Z,87.77
2023-06-23T00:54:00.939Z,87.51
2023-06-23T00:56:34.205Z,87.18
2023-06-23T00:59:06.768Z,87.52
2023-06-23T01:01:53.176Z,87.73
2023-06-23T01:04:24.014Z,87.91
2023-06-23T01:07:03.852Z,88.01
2023-06-23T01:09:45.624Z,88.29
2023-06-23T01:12:25.655Z,88.55
2023-06-23T01:15:05.683Z,88.01
2023-06-23T01:17:51.014Z,88.60
2023-06-23T01:20:26.974Z,88.09
2023-06-23T01:23:17.535Z,88.46
2023-06-23T01:25:56.927Z,88.72
2023-06-23T01:29:00.102Z,88.81
2023-06-23T01:31:42.590Z,89.20
2023-06-23T01:34:22.230Z,89.09
2023-06-23T01:36:57.451Z,89.04
2023-06-23T01:39:29.290Z,88.99
2023-06-23T01:42:02.883Z,89.55
2023-06-23T01:44:35.731Z,89.72
2023-06-23T01:47:14.315Z,89.38
2023-06-23T01:49:46.433Z,89.32
2023-06-23T01:52:18.827Z,89.40
2023-06-23T01:54:51.013Z,89.79
2023-06-23T01:57:24.135Z,89.95
2023-06-23T01:59:55.470Z,89.97
2023-06-23T02:02:29.169Z,89.71
2023-06-23T02:05:03.000Z,90.02
2023-06-23T02:07:35.039Z,89.69
2023-06-23T02:10:09.459Z,89.99
2023-06-23T02:12:43.211Z,89.65
2023-06-23T02:15:16.069Z,90.47
2023-06-23T02:17:47.772Z,90.51
2023-06-23T02:20:21.144Z,90.67
2023-06-23T02:22:54.289Z,90.19
2023-06-23T02:25:25.806Z,90.76
2023-06-23T02:27:57.444Z,90.78
2023-06-23T02:30:28.473Z,90.39
2023-06-23T02:32:59.064Z,90.79
2023-06-23T02:35:29.384Z,90.88
2023-06-23T02:38:02.931Z,90.82
2023-06-23T02:40:36.064Z,91.32
2023-06-23T02:43:12.633Z,91.35
2023-06-23T02:45:46.047Z,91.55
2023-06-23T02:48:20.552Z,91.74
2023-06-23T02:50:51.827Z,91.59
2023-06-23T02:53:25.260Z,91.65
2023-06-23T02:56:02.540Z,91.48
2023-06-23T02:58:34.438Z,91.60
2023-06-23T03:01:09.969Z,91.59
2023-06-23T03:03:42.548Z,91.51
2023-06-23T03:06:21.431Z,91.11
2023-06-23T03:08:52.281Z,90.96
2023-06-23T03:11:23.701Z,90.86
2023-06-23T03:13:55.711Z,91.12
2023-06-23T03:16:34.996Z,91.04
2023-06-23T03:19:15.236Z,91.02
2023-06-23T03:21:50.686Z,90.74
2023-06-23T03:24:22.316Z,90.38
2023-06-23T03:26:53.693Z,90.36
2023-06-23T03:29:27.536Z,90.49
2023-06-23T03:32:06.748Z,90.23
2023-06-23T03:34:43.558Z,89.99
2023-06-23T03:37:17.644Z,90.53
2023-06-23T03:39:52.874Z,90.21
2023-06-23T03:42:30.581Z,89.71
2023-06-23T03:45:07.256Z,90.51
2023-06-23T03:47:43.179Z,90.02
2023-06-23T03:50:16.328Z,90.30
2023-06-23T03:52:48.052Z,89.84
2023-06-23T03:55:22.163Z,89.45
2023-06-23T03:57:53.732Z,89.01
2023-06-23T04:00:26.926Z,88.46
2023-06-23T04:03:00.729Z,89.00
2023-06-23T04:05:33.396Z,90.08
2023-06-23T04:08:06.208Z,89.44
2023-06-23T04:10:41.805Z,89.37
2023-06-23T04:13:16.548Z,88.91
2023-06-23T04:15:48.254Z,89.43
2023-06-23T04:18:20.827Z,89.09
2023-06-23T04:21:10.999Z,88.83
2023-06-23T04:23:43.089Z,89.21
2023-06-23T04:26:17.851Z,88.47
2023-06-23T04:28:50.559Z,87.72
2023-06-23T04:31:24.481Z,87.71
2023-06-23T04:33:57.117Z,87.82
2023-06-23T04:36:36.887Z,87.48
2023-06-23T04:39:33.186Z,87.17
2023-06-23T04:42:17.564Z,87.60
2023-06-23T04:45:09.912Z,87.37
2023-06-23T04:47:46.587Z,86.95
2023-06-23T04:50:39.512Z,87.00
2023-06-23T04:53:24.543Z,87.06
2023-06-23T04:56:16.908Z,86.59
2023-06-23T04:58:52.928Z,85.75
2023-06-23T05:01:34.688Z,86.22
2023-06-23T05:04:10.333Z,85.18
2023-06-23T05:06:48.341Z,85.19
2023-06-23T05:09:21.090Z,85.00
2023-06-23T05:12:00.529Z,85.34
2023-06-23T05:14:34.503Z,84.97
2023-06-23T05:17:28.624Z,84.46
2023-06-23T05:20:06.659Z,84.75
2023-06-23T05:22:48.080Z,83.25
2023-06-23T05:25:20.918Z,83.56
2023-06-23T05:28:01.094Z,82.59
2023-06-23T05:30:51.336Z,81.70
2023-06-23T05:33:32.003Z,82.03
2023-06-23T05:36:05.524Z,82.65
2023-06-23T05:38:41.763Z,81.71
2023-06-23T05:41:25.961Z,81.83
2023-06-23T05:44:14.462Z,81.50
2023-06-23T05:47:01.264Z,81.50
2023-06-23T05:49:47.942Z,81.61
2023-06-23T05:52:39.727Z,81.24
2023-06-23T05:55:32.478Z,81.39
2023-06-23T05:58:07.824Z,81.19
2023-06-23T06:00:55.341Z,81.34
2023-06-23T06:03:36.375Z,80.45
2023-06-23T06:06:24.665Z,80.55
2023-06-23T06:09:01.793Z,80.10
2023-06-23T06:11:35.808Z,80.19
2023-06-23T06:14:11.236Z,79.29
2023-06-23T06:16:46.827Z,79.66
2023-06-23T06:19:26.841Z,80.48
2023-06-23T06:22:01.053Z,79.94
2023-06-23T06:24:49.900Z,80.24
2023-06-23T06:27:24.490Z,79.29
2023-06-23T06:30:15.247Z,79.31
2023-06-23T06:32:50.127Z,78.35
2023-06-23T06:35:24.146Z,78.42
2023-06-23T06:37:56.258Z,78.36
2023-06-23T06:40:32.768Z,78.34
2023-06-23T06:43:08.492Z,78.21
2023-06-23T06:45:39.453Z,78.57
2023-06-23T06:48:18.019Z,78.18
2023-06-23T06:50:47.657Z,78.10
2023-06-23T06:53:22.270Z,77.94
2023-06-23T06:56:00.485Z,77.79
2023-06-23T06:58:35.048Z,76.70
2023-06-23T07:01:15.310Z,77.02
2023-06-23T07:03:50.737Z,77.13
2023-06-23T07:06:22.946Z,77.05
2023-06-23T07:08:55.106Z,76.70
2023-06-23T07:11:33.554Z,77.19
2023-06-23T07:14:08.954Z,75.45
2023-06-23T07:16:43.302Z,74.85
2023-06-23T07:19:13.077Z,74.84
2023-06-23T07:21:43.686Z,74.65
2023-06-23T07:24:32.299Z,75.42
2023-06-23T07:27:19.051Z,74.24
2023-06-23T07:29:53.497Z,73.90
2023-06-23T07:32:26.858Z,74.33
2023-06-23T07:34:57.678Z,75.18
2023-06-23T07:37:29.043Z,74.42
2023-06-23T07:40:04.748Z,73.97
2023-06-23T07:42:38.052Z,73.42
2023-06-23T07:45:11.065Z,73.30
2023-06-23T07:47:42.349Z,73.04
2023-06-23T07:50:13.879Z,73.23
2023-06-23T07:52:53.688Z,73.57
2023-06-23T07:55:28.059Z,72.26
2023-06-23T07:57:59.897Z,72.51
2023-06-23T08:00:32.111Z,72.47
2023-06-23T08:03:07.012Z,70.95
2023-06-23T08:05:37.636Z,71.32
2023-06-23T08:08:09.391Z,70.98
2023-06-23T08:10:42.628Z,71.41
2023-06-23T08:13:15.605Z,71.71
2023-06-23T08:15:45.840Z,71.47
2023-06-23T08:18:22.247Z,71.12
2023-06-23T08:20:58.531Z,70.26
2023-06-23T08:23:47.487Z,70.96
2023-06-23T08:26:35.650Z,69.71
2023-06-23T08:29:16.924Z,69.71
2023-06-23T08:31:51.437Z,69.86
2023-06-23T08:34:25.621Z,69.07
2023-06-23T08:36:59.991Z,69.65
2023-06-23T08:39:32.395Z,68.38
2023-06-23T08:42:02.499Z,69.11
2023-06-23T08:44:43.927Z,69.31
2023-06-23T08:47:37.671Z,68.39
2023-06-23T08:50:18.340Z,68.49
2023-06-23T08:52:54.733Z,69.33
2023-06-23T08:55:31.897Z,68.68
2023-06-23T08:58:05.796Z,68.09
2023-06-23T09:00:40.214Z,67.25
2023-06-23T09:03:13.307Z,65.57
2023-06-23T09:05:49.587Z,66.70
2023-06-23T09:08:22.211Z,66.38
2023-06-23T09:10:52.745Z,68.15
2023-06-23T09:13:30.879Z,68.13
2023-06-23T09:16:10.771Z,64.98
2023-06-23T09:18:42.258Z,66.41
2023-06-23T09:21:11.183Z,68.28
2023-06-23T09:23:40.523Z,66.94
2023-06-23T09:26:09.085Z,64.66
2023-06-23T09:28:38.502Z,65.44
2023-06-23T09:31:12.394Z,65.57
2023-06-23T09:33:49.524Z,63.82
2023-06-23T09:36:18.139Z,64.93
2023-06-23T09:38:46.847Z,65.24
2023-06-23T09:41:16.551Z,64.67
2023-06-23T09:43:46.327Z,65.53
2023-06-23T09:46:16.810Z,63.39
2023-06-23T09:48:46.121Z,64.57
2023-06-23T09:51:16.591Z,63.85
2023-06-23T09:53:45.234Z,63.38
2023-06-23T09:56:17.061Z,64.55
2023-06-23T09:58:46.926Z,64.04
2023-06-23T10:01:17.812Z,62.80
2023-06-23T10:03:48.161Z,62.84
2023-06-23T10:06:26.331Z,62.82
2023-06-23T10:08:56.862Z,62.12
2023-06-23T10:11:36.173Z,62.72
2023-06-23T10:14:07.839Z,60.92
2023-06-23T10:16:37.718Z,62.02
2023-06-23T10:19:06.831Z,61.76
2023-06-23T10:21:38.213Z,62.03
2023-06-23T10:24:10.340Z,59.65
2023-06-23T10:26:40.348Z,61.00
2023-06-23T10:29:11.174Z,59.70
2023-06-23T10:31:40.289Z,61.24
2023-06-23T10:34:13.717Z,60.76
2023-06-23T10:36:44.836Z,61.17
2023-06-23T10:39:16.718Z,58.96
2023-06-23T10:41:47.211Z,59.51
2023-06-23T10:44:18.305Z,58.79
2023-06-23T10:46:47.138Z,59.19
2023-06-23T10:49:20.669Z,59.75
2023-06-23T10:51:53.103Z,58.72
2023-06-23T10:54:28.811Z,61.05
2023-06-23T10:56:57.374Z,61.32
2023-06-23T10:59:27.598Z,61.26
2023-06-23T11:02:20.752Z,62.81
2023-06-23T11:04:54.361Z,60.35
2023-06-23T11:07:24.503Z,60.33
2023-06-23T11:10:05.944Z,59.02
2023-06-23T11:12:41.551Z,58.95
2023-06-23T11:15:17.232Z,58.54
2023-06-23T11:17:47.485Z,58.91
2023-06-23T11:20:30.209Z,58.82
2023-06-23T11:23:03.050Z,60.22
2023-06-23T11:25:32.875Z,59.26
2023-06-23T11:28:40.744Z,59.96
2023-06-23T11:31:14.584Z,57.47
2023-06-23T11:33:44.521Z,59.79
2023-06-23T11:36:16.807Z,56.96
2023-06-23T11:38:47.123Z,58.04
2023-06-23T11:41:16.895Z,58.39
2023-06-23T11:43:46.883Z,56.27
2023-06-23T11:46:18.051Z,57.85
2023-06-23T11:48:46.917Z,56.22
2023-06-23T11:51:16.732Z,56.36
2023-06-23T11:53:47.384Z,56.16
2023-06-23T11:56:17.935Z,58.11
2023-06-23T11:58:52.891Z,57.87
2023-06-23T12:01:22.359Z,55.43
2023-06-23T12:03:51.611Z,56.97
2023-06-23T12:06:20.518Z,55.57
2023-06-23T12:08:51.212Z,56.24
2023-06-23T12:11:20.162Z,55.38
2023-06-23T12:13:49.512Z,55.03
2023-06-23T12:16:18.166Z,56.08
2023-06-23T12:18:47.040Z,55.49
2023-06-23T12:21:19.876Z,57.19
2023-06-23T12:23:49.865Z,54.68
2023-06-23T12:26:20.900Z,53.90
2023-06-23T12:28:49.251Z,54.28
2023-06-23T12:31:29.340Z,56.29
2023-06-23T12:34:03.496Z,54.91
2023-06-23T12:36:33.268Z,54.33
2023-06-23T12:39:03.775Z,53.69
2023-06-23T12:41:32.132Z,55.99
2023-06-23T12:44:02.055Z,53.99
2023-06-23T12:46:32.377Z,54.20
2023-06-23T12:49:01.989Z,55.14
2023-06-23T12:51:38.090Z,55.95
2023-06-23T12:54:12.417Z,56.36
2023-06-23T12:56:40.860Z,57.05
2023-06-23T12:59:10.525Z,58.35
2023-06-23T13:01:39.215Z,57.87
2023-06-23T13:04:08.706Z,57.44
2023-06-23T13:06:38.005Z,59.12
2023-06-23T13:09:06.529Z,60.26
2023-06-23T13:11:38.588Z,63.98
2023-06-23T13:14:07.895Z,64.08
2023-06-23T13:16:36.608Z,64.03
2023-06-23T13:19:05.585Z,64.00
2023-06-23T13:21:36.812Z,65.17
2023-06-23T13:24:05.547Z,65.15
2023-06-23T13:26:33.888Z,66.71
2023-06-23T13:29:03.874Z,65.06
2023-06-23T13:31:32.119Z,64.62
2023-06-23T13:34:00.954Z,63.92
2023-06-23T13:36:32.852Z,62.30
2023-06-23T13:39:02.329Z,62.13
2023-06-23T13:41:34.458Z,63.02
2023-06-23T13:44:11.995Z,64.52
2023-06-23T13:46:40.765Z,65.27
2023-06-23T13:49:10.902Z,65.45
2023-06-23T13:51:42.535Z,64.25
2023-06-23T13:54:13.677Z,63.97
2023-06-23T13:56:42.388Z,65.59
2023-06-23T13:59:13.303Z,65.20
2023-06-23T14:01:42.287Z,66.07
2023-06-23T14:04:10.613Z,64.97
2023-06-23T14:06:42.073Z,63.69
2023-06-23T14:09:11.216Z,64.48
2023-06-23T14:11:40.585Z,65.33
2023-06-23T14:14:09.269Z,64.04
2023-06-23T14:16:43.006Z,64.03
2023-06-23T14:19:12.032Z,64.03
2023-06-23T14:21:41.932Z,63.84
2023-06-23T14:24:10.802Z,64.57
2023-06-23T14:26:42.028Z,65.51
2023-06-23T14:29:10.613Z,65.29
2023-06-23T14:31:40.649Z,67.46
2023-06-23T14:34:10.077Z,66.66
2023-06-23T14:36:42.363Z,66.23
2023-06-23T14:39:13.215Z,67.93
2023-06-23T14:41:48.885Z,67.42
2023-06-23T14:44:20.742Z,66.90
2023-06-23T14:46:57.458Z,65.57
2023-06-23T14:49:26.343Z,65.19
2023-06-23T14:51:56.956Z,64.98
2023-06-23T14:54:29.571Z,65.29
2023-06-23T14:57:01.648Z,65.45
2023-06-23T14:59:32.894Z,65.41
2023-06-23T15:02:03.048Z,65.43
2023-06-23T15:04:32.881Z,65.39
2023-06-23T15:07:05.851Z,65.30
2023-06-23T15:09:34.512Z,65.93
2023-06-23T15:12:03.461Z,66.38
2023-06-23T15:14:34.799Z,64.94
2023-06-23T15:17:09.783Z,65.74
2023-06-23T15:19:40.735Z,65.40
2023-06-23T15:22:10.557Z,64.31
2023-06-23T15:24:41.372Z,64.15
2023-06-23T15:27:11.749Z,64.70
2023-06-23T15:29:44.250Z,65.22
2023-06-23T15:32:14.401Z,64.89
2023-06-23T15:34:42.889Z,64.04
2023-06-23T15:37:12.796Z,64.59
2023-06-23T15:39:43.684Z,64.49
2023-06-23T15:42:14.429Z,64.22
2023-06-23T15:44:50.121Z,63.97
2023-06-23T15:47:24.049Z,63.35
2023-06-23T15:49:52.811Z,64.19
2023-06-23T15:52:26.070Z,64.77
2023-06-23T15:54:56.575Z,64.12
2023-06-23T15:57:32.274Z,63.71
2023-06-23T16:00:05.926Z,63.91
2023-06-23T16:02:38.598Z,63.87
2023-06-23T16:05:08.675Z,63.46
2023-06-23T16:07:37.491Z,64.45
2023-06-23T16:10:08.778Z,64.72
2023-06-23T16:12:39.158Z,64.99
2023-06-23T16:15:11.313Z,64.63
2023-06-23T16:17:43.239Z,65.01
2023-06-23T16:20:12.825Z,64.07
2023-06-23T16:22:41.545Z,63.93
2023-06-23T16:25:11.258Z,63.94
2023-06-23T16:27:39.644Z,63.59
2023-06-23T16:30:10.372Z,63.27
2023-06-23T16:32:41.292Z,63.86
2023-06-23T16:35:13.288Z,64.67
2023-06-23T16:37:46.364Z,64.59
2023-06-23T16:40:17.672Z,64.63
2023-06-23T16:42:49.383Z,63.57
2023-06-23T16:45:23.164Z,63.43
2023-06-23T16:47:56.609Z,62.86
2023-06-23T16:50:25.909Z,63.31
2023-06-23T16:52:54.391Z,63.05
2023-06-23T16:55:25.987Z,63.09
2023-06-23T16:58:01.519Z,62.46
2023-06-23T17:03:21.131Z,63.01
2023-06-23T17:05:51.554Z,63.38
2023-06-23T17:08:20.303Z,63.70
2023-06-23T17:10:50.632Z,63.62
2023-06-23T17:13:20.854Z,64.03
2023-06-23T17:15:52.671Z,63.20
2023-06-23T17:18:29.055Z,63.73
2023-06-23T17:20:58.374Z,62.84
2023-06-23T17:23:27.042Z,63.38
2023-06-23T17:25:59.499Z,63.93
2023-06-23T17:28:30.109Z,63.97
2023-06-23T17:31:00.876Z,63.95
2023-06-23T17:33:46.302Z,64.52
2023-06-23T17:36:23.599Z,65.26
2023-06-23T17:38:57.648Z,66.04
2023-06-23T17:41:28.404Z,66.57
2023-06-23T17:43:59.513Z,67.04
2023-06-23T17:46:30.168Z,67.95
2023-06-23T17:49:02.886Z,68.07
2023-06-23T17:51:32.121Z,68.22
2023-06-23T17:54:04.539Z,68.58
2023-06-23T17:56:35.705Z,68.80
2023-06-23T17:59:06.925Z,69.29
2023-06-23T18:01:36.936Z,69.67
2023-06-23T18:04:08.684Z,69.08
2023-06-23T18:06:39.637Z,69.13
2023-06-23T18:09:12.098Z,69.31
2023-06-23T18:11:53.512Z,69.19
2023-06-23T18:14:24.061Z,69.19
2023-06-23T18:16:53.523Z,69.25
2023-06-23T18:19:25.498Z,68.88
2023-06-23T18:21:57.410Z,69.09
2023-06-23T18:24:26.823Z,68.53
2023-06-23T18:26:55.893Z,68.69
2023-06-23T18:29:24.517Z,68.50
2023-06-23T18:32:30.450Z,68.69
2023-06-23T18:35:01.978Z,68.33
2023-06-23T18:37:31.177Z,68.08
2023-06-23T18:40:02.818Z,68.44
2023-06-23T18:42:34.073Z,68.37
2023-06-23T18:45:07.436Z,67.91
2023-06-23T18:47:40.482Z,67.66
2023-06-23T18:50:13.365Z,67.83
2023-06-23T18:52:43.932Z,67.47
2023-06-23T18:55:16.670Z,67.26
2023-06-23T18:57:47.246Z,67.77
2023-06-23T19:00:17.432Z,67.73
2023-06-23T19:02:51.340Z,68.04
2023-06-23T19:05:28.388Z,68.08
2023-06-23T19:08:00.207Z,68.37
2023-06-23T19:10:33.075Z,68.49
2023-06-23T19:13:03.354Z,68.05
2023-06-23T19:15:34.517Z,67.93
2023-06-23T19:18:05.007Z,67.86
2023-06-23T19:20:35.641Z,68.14
2023-06-23T19:23:08.316Z,67.96
2023-06-23T19:25:38.620Z,67.60
2023-06-23T19:28:06.996Z,67.94
2023-06-23T19:30:38.314Z,68.58
2023-06-23T19:33:15.488Z,69.82
2023-06-23T19:35:45.414Z,71.79
2023-06-23T19:38:18.042Z,73.61
2023-06-23T19:40:53.380Z,77.52
2023-06-23T19:43:23.212Z,80.99
2023-06-23T19:45:56.337Z,83.35
2023-06-23T19:48:26.735Z,86.97
2023-06-23T19:50:58.961Z,89.72
2023-06-23T19:53:27.560Z,88.14
2023-06-23T19:55:58.497Z,86.98
2023-06-23T19:58:27.552Z,92.89
2023-06-23T20:00:56.297Z,96.27
2023-06-23T20:03:34.665Z,92.72
2023-06-23T20:06:07.558Z,92.17
2023-06-23T20:08:35.806Z,90.70
2023-06-23T20:11:04.494Z,91.51
2023-06-23T20:13:33.501Z,92.39
2023-06-23T20:16:04.959Z,92.16
2023-06-23T20:18:38.005Z,93.64
2023-06-23T20:21:08.036Z,96.27
2023-06-23T20:23:39.642Z,95.35
2023-06-23T20:26:08.248Z,97.19
2023-06-23T20:28:36.638Z,98.04
2023-06-23T20:31:05.586Z,97.02
2023-06-23T20:33:37.985Z,93.94
2023-06-23T20:36:09.861Z,95.89
2023-06-23T20:38:38.776Z,95.70
2023-06-23T20:41:07.276Z,97.19
2023-06-23T20:43:38.151Z,97.21
2023-06-23T20:46:08.377Z,96.53
2023-06-23T20:48:42.147Z,97.20
2023-06-23T20:51:12.004Z,96.88
2023-06-23T20:53:41.043Z,97.73
2023-06-23T20:56:10.965Z,97.59
2023-06-23T20:58:40.510Z,97.76
2023-06-23T21:01:14.763Z,99.06
2023-06-23T21:03:47.942Z,98.15
2023-06-23T21:06:18.098Z,98.40
2023-06-23T21:08:50.622Z,98.26
2023-06-23T21:11:21.825Z,98.54
2023-06-23T21:13:51.529Z,98.30
2023-06-23T21:16:21.264Z,99.42
2023-06-23T21:18:50.958Z,98.95
2023-06-23T21:21:21.106Z,99.99
2023-06-23T21:23:58.098Z,98.08
2023-06-23T21:26:34.438Z,98.98
2023-06-23T21:31:39.203Z,98.01
2023-06-23T21:34:07.656Z,97.42
2023-06-23T21:36:43.359Z,97.27
2023-06-23T21:39:13.803Z,96.78
2023-06-23T21:41:45.199Z,97.02
2023-06-23T21:44:17.097Z,96.93
2023-06-23T21:46:46.760Z,95.80
2023-06-23T21:49:18.762Z,96.29
2023-06-23T21:52:00.206Z,96.53
2023-06-23T21:54:30.264Z,96.41
2023-06-23T21:57:01.110Z,97.18
2023-06-23T21:59:34.942Z,95.70
2023-06-23T22:02:06.559Z,95.95
2023-06-23T22:04:41.029Z,93.28
2023-06-23T22:07:15.848Z,95.28
2023-06-23T22:09:55.114Z,96.33
2023-06-23T22:12:25.414Z,97.21
2023-06-23T22:15:01.184Z,97.62
2023-06-23T22:17:38.380Z,97.32
2023-06-23T22:20:13.362Z,97.85
2023-06-23T22:22:45.747Z,98.88
2023-06-23T22:25:15.722Z,98.44
2023-06-23T22:27:44.511Z,97.88
2023-06-23T22:30:14.551Z,98.84
2023-06-23T22:32:47.878Z,98.89
2023-06-23T22:35:17.631Z,98.99
2023-06-23T22:37:48.846Z,98.53
2023-06-23T22:40:20.162Z,99.41
2023-06-23T22:42:58.642Z,99.20
2023-06-23T22:45:28.664Z,98.23
2023-06-23T22:48:03.085Z,98.63
2023-06-23T22:50:38.543Z,98.77
2023-06-23T22:53:13.058Z,99.23
2023-06-23T22:55:43.753Z,99.12
2023-06-23T22:58:17.402Z,97.71
2023-06-23T23:00:45.826Z,98.33
2023-06-23T23:03:15.606Z,98.65
2023-06-23T23:05:45.244Z,98.71
2023-06-23T23:08:16.007Z,98.39
2023-06-23T23:10:49.865Z,98.43
2023-06-23T23:13:18.922Z,97.99
2023-06-23T23:15:47.393Z,98.81
2023-06-23T23:18:18.691Z,98.07
2023-06-23T23:20:47.993Z,99.40
2023-06-23T23:23:17.641Z,99.27
2023-06-23T23:25:47.969Z,98.51
2023-06-23T23:28:17.115Z,99.09
2023-06-23T23:30:46.043Z,98.54
2023-06-23T23:33:23.080Z,98.59
2023-06-23T23:36:03.353Z,98.69
2023-06-23T23:38:35.706Z,98.25
2023-06-23T23:41:08.833Z,97.83
2023-06-23T23:43:40.951Z,97.84
2023-06-23T23:46:12.724Z,97.34
2023-06-23T23:48:42.074Z,98.09
2023-06-23T23:51:10.318Z,98.42
2023-06-23T23:53:39.994Z,98.70
2023-06-23T23:56:09.197Z,98.56
2023-06-23T23:58:41.804Z,98.21
